createdAt,value
2018-05-15T00:00:00.244Z,20.20
2018-05-15T00:00:33.505Z,20.10
2018-05-15T00:01:06.764Z,20.10
2018-05-15T00:01:40.809Z,20.10
2018-05-15T00:02:14.081Z,20.10
2018-05-15T00:02:47.328Z,20.10
2018-05-15T00:03:21.360Z,20.00
2018-05-15T00:03:54.611Z,20.00
2018-05-15T00:04:27.880Z,20.00
2018-05-15T00:05:01.915Z,19.90
2018-05-15T00:05:35.168Z,19.90
2018-05-15T00:06:08.440Z,19.90
2018-05-15T00:06:42.509Z,19.80
2018-05-15T00:07:15.787Z,19.70
2018-05-15T00:07:49.065Z,19.70
2018-05-15T00:08:22.346Z,19.70
2018-05-15T00:08:55.604Z,19.70
2018-05-15T00:09:28.878Z,19.60
2018-05-15T00:10:02.137Z,19.60
2018-05-15T00:10:35.400Z,19.60
2018-05-15T00:11:08.666Z,19.60
2018-05-15T00:11:41.945Z,19.70
2018-05-15T00:12:15.224Z,19.70
2018-05-15T00:12:49.264Z,19.70
2018-05-15T00:13:22.540Z,19.70
2018-05-15T00:13:55.805Z,19.70
2018-05-15T00:14:29.065Z,19.70
2018-05-15T00:15:02.323Z,19.70
2018-05-15T00:15:35.607Z,19.70
2018-05-15T00:16:08.884Z,19.60
2018-05-15T00:16:42.143Z,19.60
2018-05-15T00:17:15.408Z,19.60
2018-05-15T00:17:48.684Z,19.50
2018-05-15T00:18:21.957Z,19.50
2018-05-15T00:18:55.241Z,19.50
2018-05-15T00:19:28.508Z,19.60
2018-05-15T00:20:01.788Z,19.60
2018-05-15T00:20:35.049Z,19.60
2018-05-15T00:21:08.316Z,19.70
2018-05-15T00:21:41.592Z,19.70
2018-05-15T00:22:14.856Z,19.70
2018-05-15T00:22:48.146Z,19.60
2018-05-15T00:23:21.412Z,19.60
2018-05-15T00:23:54.671Z,19.60
2018-05-15T00:24:27.944Z,19.60
2018-05-15T00:25:01.208Z,19.60
2018-05-15T00:25:34.473Z,19.60
2018-05-15T00:26:07.745Z,19.50
2018-05-15T00:26:41.772Z,19.40
2018-05-15T00:27:15.038Z,19.40
2018-05-15T00:27:48.317Z,19.40
2018-05-15T00:28:22.346Z,19.40
2018-05-15T00:28:55.612Z,19.40
2018-05-15T00:29:28.882Z,19.40
2018-05-15T00:30:02.909Z,19.30
2018-05-15T00:30:36.175Z,19.20
2018-05-15T00:31:09.432Z,19.30
2018-05-15T00:31:42.693Z,19.30
2018-05-15T00:32:16.728Z,19.20
2018-05-15T00:32:50.002Z,19.20
2018-05-15T00:33:23.265Z,19.20
2018-05-15T00:33:56.524Z,19.20
2018-05-15T00:34:29.790Z,19.20
2018-05-15T00:35:03.112Z,19.30
2018-05-15T00:35:37.140Z,19.20
2018-05-15T00:36:10.413Z,19.20
2018-05-15T00:36:43.686Z,19.20
2018-05-15T00:37:16.953Z,19.30
2018-05-15T00:37:50.996Z,19.30
2018-05-15T00:38:25.037Z,19.30
2018-05-15T00:38:59.074Z,19.20
2018-05-15T00:39:32.328Z,19.20
2018-05-15T00:40:05.595Z,19.20
2018-05-15T00:40:39.620Z,19.20
2018-05-15T00:41:12.895Z,19.20
2018-05-15T00:41:46.161Z,19.30
2018-05-15T00:42:20.188Z,19.30
2018-05-15T00:42:53.464Z,19.20
2018-05-15T00:43:26.733Z,19.20
2018-05-15T00:43:59.981Z,19.20
2018-05-15T00:44:33.290Z,19.20
2018-05-15T00:45:06.556Z,19.30
2018-05-15T00:45:40.357Z,19.30
2018-05-15T00:46:13.641Z,19.30
2018-05-15T00:46:46.897Z,19.30
2018-05-15T00:47:20.163Z,19.30
2018-05-15T00:47:54.952Z,19.20
2018-05-15T00:48:28.972Z,19.20
2018-05-15T00:49:02.245Z,19.20
2018-05-15T00:49:35.519Z,19.30
2018-05-15T00:50:08.780Z,19.20
2018-05-15T00:50:42.061Z,19.20
2018-05-15T00:51:15.324Z,19.10
2018-05-15T00:51:48.587Z,19.20
2018-05-15T00:52:21.841Z,19.20
2018-05-15T00:52:55.112Z,19.20
2018-05-15T00:53:28.372Z,19.20
2018-05-15T00:54:01.640Z,19.20
2018-05-15T00:54:34.892Z,19.20
2018-05-15T00:55:20.021Z,19.10
2018-05-15T00:55:54.054Z,19.10
2018-05-15T00:56:27.329Z,19.10
2018-05-15T00:57:00.607Z,19.10
2018-05-15T00:57:33.878Z,19.10
2018-05-15T00:58:07.176Z,19.10
2018-05-15T00:58:40.449Z,19.10
2018-05-15T00:59:13.696Z,19.10
2018-05-15T00:59:47.720Z,19.10
2018-05-15T01:00:20.986Z,19.10
2018-05-15T01:00:55.009Z,19.20
2018-05-15T01:01:28.269Z,19.20
2018-05-15T01:02:02.291Z,19.20
2018-05-15T01:02:35.564Z,19.10
2018-05-15T01:03:08.840Z,19.10
2018-05-15T01:03:42.100Z,19.20
2018-05-15T01:04:16.132Z,19.10
2018-05-15T01:04:49.385Z,19.10
2018-05-15T01:05:23.419Z,19.20
2018-05-15T01:05:56.679Z,19.20
2018-05-15T01:06:30.035Z,19.20
2018-05-15T01:07:03.344Z,19.10
2018-05-15T01:07:37.304Z,19.20
2018-05-15T01:08:11.409Z,19.10
2018-05-15T01:08:44.685Z,19.10
2018-05-15T01:09:17.959Z,19.20
2018-05-15T01:09:51.226Z,19.10
2018-05-15T01:10:24.483Z,19.20
2018-05-15T01:10:57.744Z,19.10
2018-05-15T01:11:31.018Z,19.10
2018-05-15T01:12:04.273Z,19.10
2018-05-15T01:12:37.544Z,19.10
2018-05-15T01:13:11.589Z,19.10
2018-05-15T01:13:44.860Z,19.10
2018-05-15T01:14:18.120Z,19.10
2018-05-15T01:14:51.381Z,19.20
2018-05-15T01:15:24.673Z,19.20
2018-05-15T01:15:58.712Z,19.20
2018-05-15T01:16:31.968Z,19.20
2018-05-15T01:17:05.236Z,19.20
2018-05-15T01:17:39.260Z,19.20
2018-05-15T01:18:12.532Z,19.20
2018-05-15T01:18:45.791Z,19.20
2018-05-15T01:19:19.827Z,19.20
2018-05-15T01:19:53.165Z,19.20
2018-05-15T01:20:27.272Z,19.20
2018-05-15T01:21:00.535Z,19.20
2018-05-15T01:21:33.797Z,19.20
2018-05-15T01:22:07.080Z,19.20
2018-05-15T01:22:40.356Z,19.20
2018-05-15T01:23:13.635Z,19.20
2018-05-15T01:23:47.673Z,19.20
2018-05-15T01:24:20.940Z,19.20
2018-05-15T01:24:54.969Z,19.20
2018-05-15T01:25:28.235Z,19.20
2018-05-15T01:26:01.505Z,19.20
2018-05-15T01:26:34.756Z,19.20
2018-05-15T01:27:08.382Z,19.10
2018-05-15T01:27:41.607Z,19.10
2018-05-15T01:28:14.907Z,19.10
2018-05-15T01:28:48.179Z,19.10
2018-05-15T01:29:21.460Z,19.10
2018-05-15T01:29:54.724Z,19.10
2018-05-15T01:30:27.988Z,19.20
2018-05-15T01:31:01.260Z,19.20
2018-05-15T01:31:34.523Z,19.10
2018-05-15T01:32:07.817Z,19.20
2018-05-15T01:32:41.076Z,19.20
2018-05-15T01:33:14.372Z,19.10
2018-05-15T01:33:47.665Z,19.20
2018-05-15T01:34:20.937Z,19.10
2018-05-15T01:34:54.216Z,19.20
2018-05-15T01:35:27.471Z,19.20
2018-05-15T01:36:01.509Z,19.30
2018-05-15T01:36:34.767Z,19.20
2018-05-15T01:37:08.040Z,19.20
2018-05-15T01:37:42.056Z,19.30
2018-05-15T01:38:15.317Z,19.20
2018-05-15T01:38:48.588Z,19.20
2018-05-15T01:39:22.632Z,19.20
2018-05-15T01:39:55.900Z,19.20
2018-05-15T01:40:29.162Z,19.30
2018-05-15T01:41:02.430Z,19.20
2018-05-15T01:41:35.689Z,19.20
2018-05-15T01:42:09.240Z,19.20
2018-05-15T01:42:42.509Z,19.20
2018-05-15T01:43:15.784Z,19.10
2018-05-15T01:43:49.069Z,19.10
2018-05-15T01:44:22.341Z,19.10
2018-05-15T01:44:55.607Z,19.10
2018-05-15T01:45:28.869Z,19.10
2018-05-15T01:46:02.907Z,19.10
2018-05-15T01:46:36.168Z,19.00
2018-05-15T01:47:09.430Z,19.00
2018-05-15T01:47:42.684Z,19.00
2018-05-15T01:48:15.968Z,19.00
2018-05-15T01:48:49.248Z,19.00
2018-05-15T01:49:22.515Z,19.00
2018-05-15T01:49:55.846Z,19.00
2018-05-15T01:50:29.045Z,19.00
2018-05-15T01:51:02.302Z,19.00
2018-05-15T01:51:35.552Z,19.10
2018-05-15T01:52:08.825Z,19.10
2018-05-15T01:52:42.094Z,19.10
2018-05-15T01:53:15.357Z,19.10
2018-05-15T01:53:48.656Z,19.10
2018-05-15T01:54:21.921Z,19.10
2018-05-15T01:54:55.182Z,19.10
2018-05-15T01:55:28.449Z,19.10
2018-05-15T01:56:01.708Z,19.20
2018-05-15T01:56:34.964Z,19.10
2018-05-15T01:57:08.224Z,19.10
2018-05-15T01:57:41.477Z,19.10
2018-05-15T01:58:14.741Z,19.10
2018-05-15T01:58:48.026Z,19.10
2018-05-15T01:59:21.276Z,19.10
2018-05-15T01:59:55.309Z,19.10
2018-05-15T02:00:28.571Z,19.10
2018-05-15T02:01:01.845Z,19.10
2018-05-15T02:01:35.861Z,19.10
2018-05-15T02:02:09.133Z,19.10
2018-05-15T02:02:42.387Z,19.10
2018-05-15T02:03:16.419Z,19.10
2018-05-15T02:03:49.700Z,19.10
2018-05-15T02:04:22.960Z,19.10
2018-05-15T02:04:56.993Z,19.10
2018-05-15T02:05:30.252Z,19.10
2018-05-15T02:06:03.512Z,19.10
2018-05-15T02:06:37.558Z,19.10
2018-05-15T02:07:10.827Z,19.10
2018-05-15T02:07:44.105Z,19.10
2018-05-15T02:08:17.372Z,19.10
2018-05-15T02:08:51.294Z,19.00
2018-05-15T02:09:24.520Z,19.00
2018-05-15T02:09:58.552Z,19.10
2018-05-15T02:10:31.825Z,19.00
2018-05-15T02:11:05.091Z,19.10
2018-05-15T02:11:38.351Z,19.10
2018-05-15T02:12:12.368Z,19.10
2018-05-15T02:12:45.653Z,19.10
2018-05-15T02:13:18.920Z,19.00
2018-05-15T02:13:52.957Z,19.00
2018-05-15T02:14:26.219Z,19.00
2018-05-15T02:14:59.497Z,19.10
2018-05-15T02:15:32.762Z,19.00
2018-05-15T02:16:06.817Z,19.00
2018-05-15T02:16:40.072Z,19.00
2018-05-15T02:17:13.332Z,19.00
2018-05-15T02:17:46.661Z,19.00
2018-05-15T02:18:20.620Z,19.00
2018-05-15T02:18:53.893Z,19.00
2018-05-15T02:19:27.163Z,19.00
2018-05-15T02:20:00.451Z,18.90
2018-05-15T02:20:33.717Z,18.90
2018-05-15T02:21:07.745Z,19.00
2018-05-15T02:21:41.001Z,18.90
2018-05-15T02:22:14.269Z,19.00
2018-05-15T02:22:48.313Z,18.90
2018-05-15T02:23:21.592Z,18.90
2018-05-15T02:23:54.860Z,19.00
2018-05-15T02:24:28.124Z,18.90
2018-05-15T02:25:01.397Z,18.90
2018-05-15T02:25:35.425Z,18.90
2018-05-15T02:26:08.677Z,18.90
2018-05-15T02:26:41.949Z,19.00
2018-05-15T02:27:15.989Z,18.90
2018-05-15T02:27:49.248Z,18.90
2018-05-15T02:28:22.512Z,18.90
2018-05-15T02:28:56.568Z,18.90
2018-05-15T02:29:29.912Z,18.90
2018-05-15T02:30:03.185Z,18.90
2018-05-15T02:30:36.557Z,18.80
2018-05-15T02:31:10.478Z,18.90
2018-05-15T02:31:43.740Z,18.90
2018-05-15T02:32:17.016Z,18.80
2018-05-15T02:32:50.276Z,18.90
2018-05-15T02:33:23.588Z,18.90
2018-05-15T02:33:56.872Z,18.90
2018-05-15T02:34:30.144Z,18.90
2018-05-15T02:35:03.411Z,18.90
2018-05-15T02:35:36.668Z,18.90
2018-05-15T02:36:10.711Z,18.90
2018-05-15T02:36:44.033Z,18.80
2018-05-15T02:37:17.300Z,18.80
2018-05-15T02:37:50.636Z,18.90
2018-05-15T02:38:23.897Z,18.80
2018-05-15T02:38:57.932Z,18.80
2018-05-15T02:39:31.201Z,18.80
2018-05-15T02:40:04.468Z,18.80
2018-05-15T02:40:37.746Z,18.80
2018-05-15T02:41:11.785Z,18.80
2018-05-15T02:41:45.052Z,18.80
2018-05-15T02:42:18.341Z,18.80
2018-05-15T02:42:51.568Z,18.80
2018-05-15T02:43:24.852Z,18.80
2018-05-15T02:43:58.886Z,18.80
2018-05-15T02:44:32.158Z,18.80
2018-05-15T02:45:05.425Z,18.80
2018-05-15T02:45:38.691Z,18.70
2018-05-15T02:46:12.716Z,18.70
2018-05-15T02:46:45.984Z,18.70
2018-05-15T02:47:20.020Z,18.70
2018-05-15T02:47:53.276Z,18.70
2018-05-15T02:48:26.554Z,18.70
2018-05-15T02:48:59.829Z,18.70
2018-05-15T02:49:33.873Z,18.70
2018-05-15T02:50:07.141Z,18.70
2018-05-15T02:50:40.492Z,18.70
2018-05-15T02:51:14.517Z,18.60
2018-05-15T02:51:47.796Z,18.60
2018-05-15T02:52:21.064Z,18.60
2018-05-15T02:52:54.324Z,18.60
2018-05-15T02:53:27.585Z,18.60
2018-05-15T02:54:01.615Z,18.60
2018-05-15T02:54:34.885Z,18.60
2018-05-15T02:55:08.144Z,18.50
2018-05-15T02:55:42.185Z,18.60
2018-05-15T02:56:15.471Z,18.60
2018-05-15T02:56:48.712Z,18.50
2018-05-15T02:57:21.989Z,18.50
2018-05-15T02:57:55.245Z,18.50
2018-05-15T02:58:28.512Z,18.50
2018-05-15T02:59:01.798Z,18.50
2018-05-15T02:59:35.085Z,18.50
2018-05-15T03:00:08.344Z,18.50
2018-05-15T03:00:41.625Z,18.50
2018-05-15T03:01:14.887Z,18.50
2018-05-15T03:01:48.166Z,18.50
2018-05-15T03:02:21.421Z,18.50
2018-05-15T03:02:54.689Z,18.50
2018-05-15T03:03:28.723Z,18.40
2018-05-15T03:04:02.011Z,18.40
2018-05-15T03:04:35.284Z,18.40
2018-05-15T03:05:08.540Z,18.40
2018-05-15T03:05:41.809Z,18.40
2018-05-15T03:06:15.839Z,18.40
2018-05-15T03:06:49.098Z,18.40
2018-05-15T03:07:22.378Z,18.30
2018-05-15T03:07:56.391Z,18.30
2018-05-15T03:08:29.672Z,18.30
2018-05-15T03:09:02.937Z,18.30
2018-05-15T03:09:36.221Z,18.30
2018-05-15T03:10:09.477Z,18.30
2018-05-15T03:10:43.509Z,18.20
2018-05-15T03:11:16.842Z,18.20
2018-05-15T03:11:50.119Z,18.20
2018-05-15T03:12:23.438Z,18.20
2018-05-15T03:12:56.714Z,18.20
2018-05-15T03:13:29.965Z,18.20
2018-05-15T03:14:03.234Z,18.20
2018-05-15T03:14:36.517Z,18.20
2018-05-15T03:15:09.785Z,18.20
2018-05-15T03:15:43.121Z,18.10
2018-05-15T03:16:16.386Z,18.10
2018-05-15T03:16:49.631Z,18.10
2018-05-15T03:17:22.898Z,18.10
2018-05-15T03:17:56.148Z,18.00
2018-05-15T03:18:29.408Z,18.10
2018-05-15T03:19:02.679Z,18.10
2018-05-15T03:19:35.960Z,18.10
2018-05-15T03:20:10.000Z,18.10
2018-05-15T03:20:43.259Z,18.00
2018-05-15T03:21:16.512Z,18.00
2018-05-15T03:21:50.549Z,18.00
2018-05-15T03:22:23.820Z,18.00
2018-05-15T03:22:57.192Z,18.00
2018-05-15T03:23:30.467Z,18.10
2018-05-15T03:24:04.520Z,18.00
2018-05-15T03:24:37.788Z,18.00
2018-05-15T03:25:11.060Z,18.00
2018-05-15T03:25:44.319Z,18.10
2018-05-15T03:26:17.596Z,18.10
2018-05-15T03:26:50.856Z,18.10
2018-05-15T03:27:24.886Z,18.00
2018-05-15T03:27:58.165Z,18.00
2018-05-15T03:28:31.424Z,18.00
2018-05-15T03:29:04.681Z,18.00
2018-05-15T03:29:38.730Z,18.00
2018-05-15T03:30:11.993Z,18.00
2018-05-15T03:30:45.240Z,18.00
2018-05-15T03:31:19.277Z,18.00
2018-05-15T03:31:53.423Z,18.00
2018-05-15T03:32:27.463Z,18.00
2018-05-15T03:33:00.748Z,18.00
2018-05-15T03:33:34.017Z,18.00
2018-05-15T03:34:07.289Z,18.00
2018-05-15T03:34:40.568Z,18.10
2018-05-15T03:35:13.858Z,18.10
2018-05-15T03:35:47.112Z,18.10
2018-05-15T03:36:21.151Z,18.10
2018-05-15T03:36:54.413Z,18.10
2018-05-15T03:37:27.671Z,18.10
2018-05-15T03:38:01.692Z,18.10
2018-05-15T03:38:34.948Z,18.10
2018-05-15T03:39:08.212Z,18.10
2018-05-15T03:39:41.495Z,18.10
2018-05-15T03:40:14.771Z,18.10
2018-05-15T03:40:48.041Z,18.10
2018-05-15T03:41:21.303Z,18.10
2018-05-15T03:41:54.560Z,18.10
2018-05-15T03:42:27.830Z,18.10
2018-05-15T03:43:01.086Z,18.10
2018-05-15T03:43:35.117Z,18.10
2018-05-15T03:44:08.381Z,18.10
2018-05-15T03:44:42.408Z,18.10
2018-05-15T03:45:15.689Z,18.10
2018-05-15T03:45:49.732Z,18.00
2018-05-15T03:46:22.994Z,18.10
2018-05-15T03:46:56.247Z,18.10
2018-05-15T03:47:29.521Z,18.10
2018-05-15T03:48:02.786Z,18.10
2018-05-15T03:48:36.808Z,18.10
2018-05-15T03:49:10.080Z,18.10
2018-05-15T03:49:43.346Z,18.10
2018-05-15T03:50:16.616Z,18.10
2018-05-15T03:50:49.876Z,18.10
2018-05-15T03:51:23.128Z,18.10
2018-05-15T03:51:56.388Z,18.10
2018-05-15T03:52:29.645Z,18.00
2018-05-15T03:53:03.202Z,18.00
2018-05-15T03:53:36.448Z,18.00
2018-05-15T03:54:09.709Z,17.90
2018-05-15T03:54:42.977Z,18.00
2018-05-15T03:55:16.253Z,18.00
2018-05-15T03:55:49.516Z,17.90
2018-05-15T03:56:23.589Z,17.90
2018-05-15T03:56:56.848Z,17.90
2018-05-15T03:57:30.873Z,17.90
2018-05-15T03:58:04.136Z,17.90
2018-05-15T03:58:37.397Z,17.90
2018-05-15T03:59:10.650Z,17.90
2018-05-15T03:59:43.909Z,17.90
2018-05-15T04:00:28.956Z,17.90
2018-05-15T04:01:14.164Z,17.90
2018-05-15T04:01:59.213Z,17.90
2018-05-15T04:02:44.416Z,17.90
2018-05-15T04:03:29.572Z,17.90
2018-05-15T04:04:14.672Z,17.90
2018-05-15T04:04:59.920Z,17.90
2018-05-15T04:05:45.875Z,17.80
2018-05-15T04:06:30.955Z,17.80
2018-05-15T04:07:16.024Z,17.90
2018-05-15T04:08:49.616Z,17.80
2018-05-15T04:09:22.884Z,17.80
2018-05-15T04:09:56.200Z,17.70
2018-05-15T04:10:29.471Z,17.70
2018-05-15T04:11:02.840Z,17.60
2018-05-15T04:11:36.792Z,17.70
2018-05-15T04:12:10.061Z,17.70
2018-05-15T04:12:43.328Z,17.70
2018-05-15T04:13:16.581Z,17.70
2018-05-15T04:13:49.917Z,17.60
2018-05-15T04:14:23.160Z,17.60
2018-05-15T04:14:56.426Z,17.60
2018-05-15T04:15:29.715Z,17.60
2018-05-15T04:16:02.985Z,17.60
2018-05-15T04:16:36.231Z,17.60
2018-05-15T04:17:09.492Z,17.60
2018-05-15T04:17:42.767Z,17.60
2018-05-15T04:18:16.804Z,17.60
2018-05-15T04:18:50.837Z,17.60
2018-05-15T04:19:24.109Z,17.60
2018-05-15T04:19:57.378Z,17.60
2018-05-15T04:20:30.660Z,17.60
2018-05-15T04:21:03.919Z,17.60
2018-05-15T04:21:37.944Z,17.50
2018-05-15T04:22:11.208Z,17.50
2018-05-15T04:22:44.465Z,17.50
2018-05-15T04:23:17.761Z,17.50
2018-05-15T04:23:51.791Z,17.50
2018-05-15T04:24:25.048Z,17.50
2018-05-15T04:24:58.316Z,17.50
2018-05-15T04:25:32.368Z,17.50
2018-05-15T04:26:05.629Z,17.50
2018-05-15T04:26:38.893Z,17.50
2018-05-15T04:27:12.163Z,17.50
2018-05-15T04:27:45.457Z,17.60
2018-05-15T04:28:18.828Z,17.50
2018-05-15T04:28:51.985Z,17.50
2018-05-15T04:29:26.017Z,17.50
2018-05-15T04:29:59.284Z,17.50
2018-05-15T04:30:32.559Z,17.50
2018-05-15T04:31:05.828Z,17.50
2018-05-15T04:31:39.112Z,17.50
2018-05-15T04:32:12.391Z,17.50
2018-05-15T04:32:45.685Z,17.40
2018-05-15T04:33:18.961Z,17.40
2018-05-15T04:33:52.226Z,17.40
2018-05-15T04:34:27.016Z,17.40
2018-05-15T04:35:00.335Z,17.30
2018-05-15T04:35:33.572Z,17.30
2018-05-15T04:36:06.856Z,17.30
2018-05-15T04:36:40.121Z,17.30
2018-05-15T04:37:14.148Z,17.30
2018-05-15T04:37:48.197Z,17.40
2018-05-15T04:38:21.449Z,17.30
2018-05-15T04:38:54.709Z,17.40
2018-05-15T04:39:28.744Z,17.40
2018-05-15T04:40:02.007Z,17.40
2018-05-15T04:40:35.285Z,17.40
2018-05-15T04:41:09.312Z,17.40
2018-05-15T04:41:42.585Z,17.40
2018-05-15T04:42:15.852Z,17.40
2018-05-15T04:42:49.097Z,17.40
2018-05-15T04:43:22.381Z,17.50
2018-05-15T04:43:55.689Z,17.40
2018-05-15T04:44:28.913Z,17.40
2018-05-15T04:45:02.951Z,17.40
2018-05-15T04:45:37.009Z,17.40
2018-05-15T04:46:10.282Z,17.40
2018-05-15T04:46:43.547Z,17.30
2018-05-15T04:47:16.827Z,17.40
2018-05-15T04:47:50.102Z,17.40
2018-05-15T04:48:23.364Z,17.40
2018-05-15T04:48:56.637Z,17.40
2018-05-15T04:49:30.681Z,17.40
2018-05-15T04:50:03.941Z,17.40
2018-05-15T04:50:37.209Z,17.40
2018-05-15T04:51:10.468Z,17.50
2018-05-15T04:51:43.736Z,17.50
2018-05-15T04:52:17.768Z,17.50
2018-05-15T04:52:51.047Z,17.50
2018-05-15T04:53:24.338Z,17.50
2018-05-15T04:53:57.589Z,17.60
2018-05-15T04:54:30.863Z,17.50
2018-05-15T04:55:05.526Z,17.50
2018-05-15T04:55:38.907Z,17.50
2018-05-15T04:56:12.125Z,17.60
2018-05-15T04:56:45.384Z,17.60
2018-05-15T04:57:19.411Z,17.60
2018-05-15T04:57:53.444Z,17.60
2018-05-15T04:58:26.712Z,17.60
2018-05-15T04:58:59.989Z,17.70
2018-05-15T04:59:33.270Z,17.70
2018-05-15T05:00:06.528Z,17.70
2018-05-15T05:00:40.571Z,17.60
2018-05-15T05:01:13.837Z,17.60
2018-05-15T05:01:47.101Z,17.70
2018-05-15T05:02:20.361Z,17.60
2018-05-15T05:02:53.640Z,17.70
2018-05-15T05:03:26.912Z,17.70
2018-05-15T05:04:00.202Z,17.70
2018-05-15T05:04:33.458Z,17.70
2018-05-15T05:05:06.740Z,17.70
2018-05-15T05:05:40.764Z,17.70
2018-05-15T05:06:14.800Z,17.70
2018-05-15T05:06:48.060Z,17.70
2018-05-15T05:07:21.319Z,17.70
2018-05-15T05:07:55.361Z,17.70
2018-05-15T05:08:28.624Z,17.70
2018-05-15T05:09:01.897Z,17.70
2018-05-15T05:09:35.191Z,17.70
2018-05-15T05:10:08.437Z,17.70
2018-05-15T05:10:42.493Z,17.70
2018-05-15T05:11:15.865Z,17.60
2018-05-15T05:11:49.162Z,17.60
2018-05-15T05:12:22.404Z,17.60
2018-05-15T05:12:55.665Z,17.70
2018-05-15T05:13:29.689Z,17.70
2018-05-15T05:14:02.971Z,17.60
2018-05-15T05:14:36.253Z,17.70
2018-05-15T05:15:09.532Z,17.70
2018-05-15T05:15:42.792Z,17.70
2018-05-15T05:16:16.069Z,17.60
2018-05-15T05:16:50.096Z,17.70
2018-05-15T05:17:23.355Z,17.80
2018-05-15T05:17:56.611Z,17.80
2018-05-15T05:18:30.640Z,17.80
2018-05-15T05:19:03.923Z,17.80
2018-05-15T05:19:37.181Z,17.90
2018-05-15T05:20:11.231Z,17.90
2018-05-15T05:20:44.511Z,17.90
2018-05-15T05:21:17.772Z,17.80
2018-05-15T05:21:51.625Z,17.80
2018-05-15T05:22:24.880Z,17.80
2018-05-15T05:22:58.148Z,17.80
2018-05-15T05:23:31.436Z,17.90
2018-05-15T05:24:04.703Z,17.90
2018-05-15T05:24:37.963Z,17.90
2018-05-15T05:25:11.239Z,17.90
2018-05-15T05:25:44.508Z,18.00
2018-05-15T05:26:17.810Z,18.00
2018-05-15T05:26:51.088Z,18.00
2018-05-15T05:27:24.382Z,18.00
2018-05-15T05:27:57.637Z,18.00
2018-05-15T05:28:30.904Z,18.00
2018-05-15T05:29:04.163Z,18.00
2018-05-15T05:29:38.207Z,18.00
2018-05-15T05:30:11.469Z,18.00
2018-05-15T05:30:44.721Z,18.00
2018-05-15T05:31:18.778Z,17.90
2018-05-15T05:31:52.156Z,17.90
2018-05-15T05:32:25.461Z,18.00
2018-05-15T05:32:58.725Z,17.90
2018-05-15T05:33:31.991Z,17.90
2018-05-15T05:34:05.260Z,17.90
2018-05-15T05:34:38.543Z,17.90
2018-05-15T05:35:11.830Z,17.90
2018-05-15T05:35:45.088Z,17.90
2018-05-15T05:36:18.930Z,17.90
2018-05-15T05:36:52.220Z,17.90
2018-05-15T05:37:25.489Z,17.90
2018-05-15T05:37:58.752Z,17.90
2018-05-15T05:38:32.799Z,18.00
2018-05-15T05:39:06.854Z,18.00
2018-05-15T05:39:40.102Z,18.00
2018-05-15T05:40:13.431Z,18.00
2018-05-15T05:40:47.439Z,18.00
2018-05-15T05:41:20.701Z,18.00
2018-05-15T05:41:53.984Z,18.00
2018-05-15T05:42:27.237Z,18.00
2018-05-15T05:43:00.508Z,18.00
2018-05-15T05:43:33.794Z,18.00
2018-05-15T05:44:07.028Z,18.00
2018-05-15T05:44:41.070Z,18.10
2018-05-15T05:45:14.324Z,18.10
2018-05-15T05:45:47.597Z,18.10
2018-05-15T05:46:21.725Z,18.10
2018-05-15T05:46:54.921Z,18.10
2018-05-15T05:47:28.172Z,18.10
2018-05-15T05:48:01.448Z,18.10
2018-05-15T05:48:34.709Z,18.20
2018-05-15T05:49:08.736Z,18.20
2018-05-15T05:49:41.992Z,18.20
2018-05-15T05:50:15.272Z,18.20
2018-05-15T05:50:49.300Z,18.20
2018-05-15T05:51:22.560Z,18.20
2018-05-15T05:51:56.625Z,18.20
2018-05-15T05:52:29.891Z,18.20
2018-05-15T05:53:03.147Z,18.20
2018-05-15T05:53:36.419Z,18.30
2018-05-15T05:54:09.683Z,18.30
2018-05-15T05:54:42.947Z,18.30
2018-05-15T05:55:16.973Z,18.40
2018-05-15T05:55:50.263Z,18.40
2018-05-15T05:56:23.533Z,18.40
2018-05-15T05:56:56.786Z,18.50
2018-05-15T05:57:30.534Z,18.50
2018-05-15T05:58:03.780Z,18.50
2018-05-15T05:58:37.056Z,18.50
2018-05-15T05:59:10.326Z,18.50
2018-05-15T05:59:43.607Z,18.60
2018-05-15T06:00:16.877Z,18.60
2018-05-15T06:00:50.934Z,18.60
2018-05-15T06:01:24.228Z,18.60
2018-05-15T06:01:57.518Z,18.60
2018-05-15T06:02:30.815Z,18.60
2018-05-15T06:03:04.108Z,18.70
2018-05-15T06:03:37.382Z,18.60
2018-05-15T06:04:10.646Z,18.70
2018-05-15T06:04:44.688Z,18.70
2018-05-15T06:05:17.956Z,18.70
2018-05-15T06:05:51.232Z,18.80
2018-05-15T06:06:24.500Z,18.80
2018-05-15T06:06:57.795Z,18.80
2018-05-15T06:07:31.076Z,18.80
2018-05-15T06:08:04.339Z,18.80
2018-05-15T06:08:38.369Z,18.80
2018-05-15T06:09:11.630Z,18.80
2018-05-15T06:09:44.887Z,18.80
2018-05-15T06:10:18.942Z,18.90
2018-05-15T06:10:52.241Z,18.80
2018-05-15T06:11:25.501Z,18.80
2018-05-15T06:11:58.760Z,18.90
2018-05-15T06:12:32.031Z,18.80
2018-05-15T06:13:05.320Z,18.90
2018-05-15T06:13:38.588Z,18.90
2018-05-15T06:14:11.919Z,18.90
2018-05-15T06:14:45.126Z,18.90
2018-05-15T06:15:18.443Z,19.00
2018-05-15T06:15:51.716Z,19.00
2018-05-15T06:16:24.968Z,19.00
2018-05-15T06:16:58.228Z,19.00
2018-05-15T06:17:31.506Z,19.10
2018-05-15T06:18:04.781Z,19.10
2018-05-15T06:18:38.053Z,19.10
2018-05-15T06:19:11.320Z,19.10
2018-05-15T06:19:44.587Z,19.10
2018-05-15T06:20:17.852Z,19.20
2018-05-15T06:20:51.136Z,19.20
2018-05-15T06:21:24.405Z,19.20
2018-05-15T06:21:57.708Z,19.20
2018-05-15T06:22:31.702Z,19.40
2018-05-15T06:23:04.976Z,19.30
2018-05-15T06:23:38.232Z,19.40
2018-05-15T06:24:11.521Z,19.40
2018-05-15T06:24:44.788Z,19.40
2018-05-15T06:25:18.817Z,19.50
2018-05-15T06:25:52.084Z,19.50
2018-05-15T06:26:25.349Z,19.50
2018-05-15T06:26:58.621Z,19.60
2018-05-15T06:27:32.757Z,19.60
2018-05-15T06:28:05.943Z,19.60
2018-05-15T06:28:39.209Z,19.70
2018-05-15T06:29:12.462Z,19.70
2018-05-15T06:29:46.492Z,19.80
2018-05-15T06:30:19.783Z,19.80
2018-05-15T06:30:53.054Z,19.80
2018-05-15T06:31:26.311Z,19.90
2018-05-15T06:31:59.583Z,19.90
2018-05-15T06:32:33.625Z,19.90
2018-05-15T06:33:06.893Z,19.90
2018-05-15T06:33:40.164Z,19.90
2018-05-15T06:34:13.420Z,20.00
2018-05-15T06:34:46.692Z,20.00
2018-05-15T06:35:20.735Z,20.10
2018-05-15T06:35:54.025Z,20.10
2018-05-15T06:36:27.276Z,20.10
2018-05-15T06:37:00.540Z,20.10
2018-05-15T06:37:33.825Z,20.10
2018-05-15T06:38:07.079Z,20.20
2018-05-15T06:38:40.358Z,20.20
2018-05-15T06:39:13.694Z,20.20
2018-05-15T06:39:46.944Z,20.30
2018-05-15T06:40:20.216Z,20.30
2018-05-15T06:40:53.484Z,20.30
2018-05-15T06:41:26.744Z,20.30
2018-05-15T06:41:59.998Z,20.40
2018-05-15T06:42:33.278Z,20.40
2018-05-15T06:43:06.548Z,20.50
2018-05-15T06:43:39.805Z,20.60
2018-05-15T06:44:13.063Z,20.60
2018-05-15T06:44:46.402Z,20.60
2018-05-15T06:45:19.612Z,20.60
2018-05-15T06:45:52.878Z,20.70
2018-05-15T06:46:26.148Z,20.80
2018-05-15T06:46:59.411Z,20.80
2018-05-15T06:47:32.672Z,20.80
2018-05-15T06:48:05.944Z,20.90
2018-05-15T06:48:39.204Z,20.90
2018-05-15T06:49:13.237Z,21.10
2018-05-15T06:49:46.505Z,21.00
2018-05-15T06:50:19.777Z,21.10
2018-05-15T06:50:53.793Z,21.20
2018-05-15T06:51:27.059Z,21.10
2018-05-15T06:52:00.319Z,21.20
2018-05-15T06:52:34.355Z,21.20
2018-05-15T06:53:07.644Z,21.20
2018-05-15T06:53:40.892Z,21.30
2018-05-15T06:54:14.163Z,21.30
2018-05-15T06:54:47.444Z,21.30
2018-05-15T06:55:21.471Z,21.30
2018-05-15T06:55:54.757Z,21.20
2018-05-15T06:56:28.008Z,21.30
2018-05-15T06:57:01.276Z,21.30
2018-05-15T06:57:34.530Z,21.40
2018-05-15T06:58:07.837Z,21.40
2018-05-15T06:58:41.096Z,21.50
2018-05-15T06:59:14.350Z,21.50
2018-05-15T06:59:47.678Z,21.50
2018-05-15T07:00:20.917Z,21.50
2018-05-15T07:00:54.253Z,21.50
2018-05-15T07:01:28.277Z,21.60
2018-05-15T07:02:01.537Z,21.50
2018-05-15T07:02:34.800Z,21.50
2018-05-15T07:03:08.873Z,21.60
2018-05-15T07:03:42.149Z,21.60
2018-05-15T07:04:15.408Z,21.60
2018-05-15T07:04:48.709Z,21.50
2018-05-15T07:05:21.973Z,21.60
2018-05-15T07:05:55.240Z,21.60
2018-05-15T07:06:28.501Z,21.60
2018-05-15T07:07:01.760Z,21.60
2018-05-15T07:07:35.012Z,21.50
2018-05-15T07:08:08.287Z,21.60
2018-05-15T07:08:41.594Z,21.60
2018-05-15T07:09:14.860Z,21.60
2018-05-15T07:09:48.184Z,21.60
2018-05-15T07:10:21.441Z,21.60
2018-05-15T07:10:54.720Z,21.60
2018-05-15T07:11:28.749Z,21.60
2018-05-15T07:12:02.012Z,21.50
2018-05-15T07:12:35.288Z,21.60
2018-05-15T07:13:08.548Z,21.60